sensor_id;sensor_type;location;lat;lon;timestamp;P1;durP1;ratioP1;P2;durP2;ratioP2
80272;SDS011;69574;45.328;9.598;2023-05-10T00:00:22;15.00;;;11.35;;
80272;SDS011;69574;45.328;9.598;2023-05-10T00:02:48;15.93;;;11.82;;
80272;SDS011;69574;45.328;9.598;2023-05-10T00:05:14;15.52;;;11.35;;
80272;SDS011;69574;45.328;9.598;2023-05-10T00:07:40;15.07;;;11.43;;
80272;SDS011;69574;45.328;9.598;2023-05-10T00:10:08;15.93;;;12.13;;
80272;SDS011;69574;45.328;9.598;2023-05-10T00:12:34;14.88;;;11.88;;
80272;SDS011;69574;45.328;9.598;2023-05-10T00:14:59;13.70;;;10.95;;
80272;SDS011;69574;45.328;9.598;2023-05-10T00:17:25;13.45;;;10.82;;
80272;SDS011;69574;45.328;9.598;2023-05-10T00:19:50;14.15;;;11.38;;
80272;SDS011;69574;45.328;9.598;2023-05-10T00:22:16;15.95;;;11.93;;
80272;SDS011;69574;45.328;9.598;2023-05-10T00:24:42;14.43;;;11.23;;
80272;SDS011;69574;45.328;9.598;2023-05-10T00:27:09;14.90;;;10.70;;
80272;SDS011;69574;45.328;9.598;2023-05-10T00:29:34;14.90;;;11.65;;
80272;SDS011;69574;45.328;9.598;2023-05-10T00:32:00;15.48;;;11.77;;
80272;SDS011;69574;45.328;9.598;2023-05-10T00:34:26;17.70;;;12.52;;
80272;SDS011;69574;45.328;9.598;2023-05-10T00:36:52;15.23;;;11.63;;
80272;SDS011;69574;45.328;9.598;2023-05-10T00:39:18;15.65;;;11.90;;
80272;SDS011;69574;45.328;9.598;2023-05-10T00:41:43;16.85;;;12.15;;
80272;SDS011;69574;45.328;9.598;2023-05-10T00:44:11;14.60;;;11.65;;
80272;SDS011;69574;45.328;9.598;2023-05-10T00:46:36;14.95;;;10.93;;
80272;SDS011;69574;45.328;9.598;2023-05-10T00:49:02;15.10;;;11.48;;
80272;SDS011;69574;45.328;9.598;2023-05-10T00:51:28;13.43;;;10.30;;
80272;SDS011;69574;45.328;9.598;2023-05-10T00:53:53;14.30;;;11.15;;
80272;SDS011;69574;45.328;9.598;2023-05-10T00:56:19;14.18;;;11.48;;
80272;SDS011;69574;45.328;9.598;2023-05-10T00:58:48;16.77;;;12.23;;
80272;SDS011;69574;45.328;9.598;2023-05-10T01:01:15;13.52;;;10.50;;
80272;SDS011;69574;45.328;9.598;2023-05-10T01:03:41;14.20;;;11.13;;
80272;SDS011;69574;45.328;9.598;2023-05-10T01:06:07;15.10;;;10.93;;
80272;SDS011;69574;45.328;9.598;2023-05-10T01:08:32;12.90;;;10.35;;
80272;SDS011;69574;45.328;9.598;2023-05-10T01:10:58;13.80;;;10.60;;
80272;SDS011;69574;45.328;9.598;2023-05-10T01:13:28;14.30;;;10.38;;
80272;SDS011;69574;45.328;9.598;2023-05-10T01:15:55;14.52;;;10.82;;
80272;SDS011;69574;45.328;9.598;2023-05-10T01:18:23;16.20;;;12.15;;
80272;SDS011;69574;45.328;9.598;2023-05-10T01:20:48;16.52;;;12.85;;
80272;SDS011;69574;45.328;9.598;2023-05-10T01:23:27;17.33;;;13.27;;
80272;SDS011;69574;45.328;9.598;2023-05-10T01:26:04;15.38;;;12.50;;
80272;SDS011;69574;45.328;9.598;2023-05-10T01:28:37;18.33;;;13.57;;
80272;SDS011;69574;45.328;9.598;2023-05-10T01:31:08;20.25;;;14.93;;
80272;SDS011;69574;45.328;9.598;2023-05-10T01:33:41;18.13;;;13.60;;
80272;SDS011;69574;45.328;9.598;2023-05-10T01:36:09;20.15;;;15.30;;
80272;SDS011;69574;45.328;9.598;2023-05-10T01:38:41;19.45;;;15.43;;
80272;SDS011;69574;45.328;9.598;2023-05-10T01:41:12;19.83;;;15.40;;
80272;SDS011;69574;45.328;9.598;2023-05-10T01:43:42;19.42;;;14.93;;
80272;SDS011;69574;45.328;9.598;2023-05-10T01:46:10;20.60;;;15.65;;
80272;SDS011;69574;45.328;9.598;2023-05-10T01:48:38;21.48;;;17.05;;
80272;SDS011;69574;45.328;9.598;2023-05-10T01:51:07;19.75;;;15.48;;
80272;SDS011;69574;45.328;9.598;2023-05-10T01:53:34;19.83;;;15.00;;
80272;SDS011;69574;45.328;9.598;2023-05-10T01:56:03;20.88;;;15.25;;
80272;SDS011;69574;45.328;9.598;2023-05-10T01:58:29;18.65;;;13.75;;
80272;SDS011;69574;45.328;9.598;2023-05-10T02:03:22;19.02;;;14.25;;
80272;SDS011;69574;45.328;9.598;2023-05-10T02:05:48;19.98;;;14.18;;
80272;SDS011;69574;45.328;9.598;2023-05-10T02:08:16;17.25;;;14.00;;
80272;SDS011;69574;45.328;9.598;2023-05-10T02:10:43;22.45;;;15.05;;
80272;SDS011;69574;45.328;9.598;2023-05-10T02:13:10;18.10;;;13.35;;
80272;SDS011;69574;45.328;9.598;2023-05-10T02:18:02;20.57;;;14.30;;
80272;SDS011;69574;45.328;9.598;2023-05-10T02:20:28;19.92;;;14.25;;
80272;SDS011;69574;45.328;9.598;2023-05-10T02:22:55;18.15;;;14.10;;
80272;SDS011;69574;45.328;9.598;2023-05-10T02:25:24;20.58;;;14.82;;
80272;SDS011;69574;45.328;9.598;2023-05-10T02:27:51;21.70;;;15.13;;
80272;SDS011;69574;45.328;9.598;2023-05-10T02:30:19;18.40;;;13.95;;
80272;SDS011;69574;45.328;9.598;2023-05-10T02:32:44;20.45;;;14.38;;
80272;SDS011;69574;45.328;9.598;2023-05-10T02:35:10;20.35;;;15.32;;
80272;SDS011;69574;45.328;9.598;2023-05-10T02:37:36;19.85;;;14.82;;
80272;SDS011;69574;45.328;9.598;2023-05-10T02:40:03;19.05;;;14.77;;
80272;SDS011;69574;45.328;9.598;2023-05-10T02:42:32;20.38;;;15.82;;
80272;SDS011;69574;45.328;9.598;2023-05-10T02:44:59;20.17;;;15.07;;
80272;SDS011;69574;45.328;9.598;2023-05-10T02:47:25;19.27;;;14.90;;
80272;SDS011;69574;45.328;9.598;2023-05-10T02:49:51;19.05;;;14.60;;
80272;SDS011;69574;45.328;9.598;2023-05-10T02:52:19;17.65;;;13.93;;
80272;SDS011;69574;45.328;9.598;2023-05-10T02:54:47;17.85;;;14.60;;
80272;SDS011;69574;45.328;9.598;2023-05-10T02:57:15;17.38;;;12.30;;
80272;SDS011;69574;45.328;9.598;2023-05-10T02:59:45;15.73;;;11.63;;
80272;SDS011;69574;45.328;9.598;2023-05-10T03:02:11;15.27;;;11.18;;
80272;SDS011;69574;45.328;9.598;2023-05-10T03:04:37;13.63;;;10.63;;
80272;SDS011;69574;45.328;9.598;2023-05-10T03:07:03;15.57;;;10.57;;
80272;SDS011;69574;45.328;9.598;2023-05-10T03:09:29;14.30;;;10.07;;
80272;SDS011;69574;45.328;9.598;2023-05-10T03:11:56;13.07;;;9.82;;
80272;SDS011;69574;45.328;9.598;2023-05-10T03:14:31;12.38;;;9.07;;
80272;SDS011;69574;45.328;9.598;2023-05-10T03:17:02;14.15;;;10.30;;
80272;SDS011;69574;45.328;9.598;2023-05-10T03:19:30;14.43;;;10.48;;
80272;SDS011;69574;45.328;9.598;2023-05-10T03:21:59;15.45;;;10.50;;
80272;SDS011;69574;45.328;9.598;2023-05-10T03:24:25;15.73;;;11.02;;
80272;SDS011;69574;45.328;9.598;2023-05-10T03:26:52;15.95;;;11.52;;
80272;SDS011;69574;45.328;9.598;2023-05-10T03:29:21;14.57;;;10.88;;
80272;SDS011;69574;45.328;9.598;2023-05-10T03:31:47;14.65;;;11.27;;
80272;SDS011;69574;45.328;9.598;2023-05-10T03:34:14;15.70;;;11.13;;
80272;SDS011;69574;45.328;9.598;2023-05-10T03:36:39;12.88;;;10.10;;
80272;SDS011;69574;45.328;9.598;2023-05-10T03:39:05;13.93;;;10.15;;
80272;SDS011;69574;45.328;9.598;2023-05-10T03:41:31;13.82;;;10.35;;
80272;SDS011;69574;45.328;9.598;2023-05-10T03:43:56;14.77;;;10.52;;
80272;SDS011;69574;45.328;9.598;2023-05-10T03:46:22;13.07;;;9.35;;
80272;SDS011;69574;45.328;9.598;2023-05-10T03:48:48;14.35;;;9.27;;
80272;SDS011;69574;45.328;9.598;2023-05-10T03:51:15;13.18;;;9.50;;
80272;SDS011;69574;45.328;9.598;2023-05-10T03:53:40;12.98;;;9.40;;
80272;SDS011;69574;45.328;9.598;2023-05-10T03:56:06;13.27;;;8.63;;
80272;SDS011;69574;45.328;9.598;2023-05-10T03:58:32;13.48;;;9.20;;
80272;SDS011;69574;45.328;9.598;2023-05-10T04:00:57;11.80;;;7.88;;
80272;SDS011;69574;45.328;9.598;2023-05-10T04:03:23;11.18;;;8.23;;
80272;SDS011;69574;45.328;9.598;2023-05-10T04:05:58;10.90;;;8.00;;
80272;SDS011;69574;45.328;9.598;2023-05-10T04:08:26;9.35;;;6.40;;
80272;SDS011;69574;45.328;9.598;2023-05-10T04:10:52;11.93;;;7.15;;
80272;SDS011;69574;45.328;9.598;2023-05-10T04:13:17;10.23;;;6.25;;
80272;SDS011;69574;45.328;9.598;2023-05-10T04:15:44;9.02;;;5.75;;
80272;SDS011;69574;45.328;9.598;2023-05-10T04:18:10;8.75;;;5.60;;
80272;SDS011;69574;45.328;9.598;2023-05-10T04:20:35;7.20;;;4.82;;
80272;SDS011;69574;45.328;9.598;2023-05-10T04:23:01;7.18;;;5.18;;
80272;SDS011;69574;45.328;9.598;2023-05-10T04:25:28;9.23;;;5.70;;
80272;SDS011;69574;45.328;9.598;2023-05-10T04:27:54;7.53;;;5.05;;
80272;SDS011;69574;45.328;9.598;2023-05-10T04:30:19;6.95;;;5.25;;
80272;SDS011;69574;45.328;9.598;2023-05-10T04:32:45;7.60;;;5.38;;
80272;SDS011;69574;45.328;9.598;2023-05-10T04:35:11;7.18;;;5.10;;
80272;SDS011;69574;45.328;9.598;2023-05-10T04:37:36;8.27;;;5.22;;
80272;SDS011;69574;45.328;9.598;2023-05-10T04:40:02;7.10;;;4.70;;
80272;SDS011;69574;45.328;9.598;2023-05-10T04:42:30;8.93;;;5.07;;
80272;SDS011;69574;45.328;9.598;2023-05-10T04:44:55;7.22;;;5.07;;
80272;SDS011;69574;45.328;9.598;2023-05-10T04:47:21;8.45;;;5.18;;
80272;SDS011;69574;45.328;9.598;2023-05-10T04:49:46;7.55;;;4.97;;
80272;SDS011;69574;45.328;9.598;2023-05-10T04:52:12;8.00;;;4.97;;
80272;SDS011;69574;45.328;9.598;2023-05-10T04:54:38;7.20;;;5.15;;
80272;SDS011;69574;45.328;9.598;2023-05-10T04:57:04;7.28;;;5.13;;
80272;SDS011;69574;45.328;9.598;2023-05-10T04:59:31;7.72;;;5.28;;
80272;SDS011;69574;45.328;9.598;2023-05-10T05:01:57;6.97;;;4.90;;
80272;SDS011;69574;45.328;9.598;2023-05-10T05:04:22;6.95;;;5.05;;
80272;SDS011;69574;45.328;9.598;2023-05-10T05:06:49;7.60;;;5.20;;
80272;SDS011;69574;45.328;9.598;2023-05-10T05:09:15;9.10;;;5.10;;
80272;SDS011;69574;45.328;9.598;2023-05-10T05:11:41;8.88;;;5.28;;
80272;SDS011;69574;45.328;9.598;2023-05-10T05:14:07;8.60;;;5.75;;
80272;SDS011;69574;45.328;9.598;2023-05-10T05:16:34;8.50;;;5.47;;
80272;SDS011;69574;45.328;9.598;2023-05-10T05:19:00;7.22;;;5.03;;
80272;SDS011;69574;45.328;9.598;2023-05-10T05:21:26;8.40;;;5.13;;
80272;SDS011;69574;45.328;9.598;2023-05-10T05:23:52;7.22;;;4.65;;
80272;SDS011;69574;45.328;9.598;2023-05-10T05:26:18;6.10;;;4.45;;
80272;SDS011;69574;45.328;9.598;2023-05-10T05:28:43;6.45;;;4.70;;
80272;SDS011;69574;45.328;9.598;2023-05-10T05:31:09;7.85;;;5.13;;
80272;SDS011;69574;45.328;9.598;2023-05-10T05:33:36;8.15;;;4.80;;
80272;SDS011;69574;45.328;9.598;2023-05-10T05:36:02;7.60;;;4.97;;
80272;SDS011;69574;45.328;9.598;2023-05-10T05:38:28;8.00;;;4.80;;
80272;SDS011;69574;45.328;9.598;2023-05-10T05:40:54;7.53;;;4.72;;
80272;SDS011;69574;45.328;9.598;2023-05-10T05:43:20;6.88;;;4.78;;
80272;SDS011;69574;45.328;9.598;2023-05-10T05:45:45;7.15;;;5.00;;
80272;SDS011;69574;45.328;9.598;2023-05-10T05:48:11;7.85;;;4.70;;
80272;SDS011;69574;45.328;9.598;2023-05-10T05:50:38;10.00;;;5.35;;
80272;SDS011;69574;45.328;9.598;2023-05-10T05:53:04;7.05;;;5.07;;
80272;SDS011;69574;45.328;9.598;2023-05-10T05:55:29;7.78;;;5.40;;
80272;SDS011;69574;45.328;9.598;2023-05-10T05:57:56;6.68;;;4.68;;
80272;SDS011;69574;45.328;9.598;2023-05-10T06:00:22;9.68;;;5.43;;
80272;SDS011;69574;45.328;9.598;2023-05-10T06:02:48;7.20;;;5.22;;
80272;SDS011;69574;45.328;9.598;2023-05-10T06:05:13;6.80;;;5.00;;
80272;SDS011;69574;45.328;9.598;2023-05-10T06:07:40;7.03;;;4.88;;
80272;SDS011;69574;45.328;9.598;2023-05-10T06:10:07;7.32;;;4.97;;
80272;SDS011;69574;45.328;9.598;2023-05-10T06:12:33;7.22;;;4.85;;
80272;SDS011;69574;45.328;9.598;2023-05-10T06:14:58;7.88;;;5.43;;
80272;SDS011;69574;45.328;9.598;2023-05-10T06:17:24;7.68;;;5.20;;
80272;SDS011;69574;45.328;9.598;2023-05-10T06:19:50;7.30;;;5.07;;
80272;SDS011;69574;45.328;9.598;2023-05-10T06:22:16;8.65;;;5.10;;
80272;SDS011;69574;45.328;9.598;2023-05-10T06:24:43;6.80;;;5.00;;
80272;SDS011;69574;45.328;9.598;2023-05-10T06:27:08;7.63;;;5.25;;
80272;SDS011;69574;45.328;9.598;2023-05-10T06:29:34;8.90;;;5.10;;
80272;SDS011;69574;45.328;9.598;2023-05-10T06:32:00;7.50;;;5.60;;
80272;SDS011;69574;45.328;9.598;2023-05-10T06:34:25;6.45;;;4.72;;
80272;SDS011;69574;45.328;9.598;2023-05-10T06:36:51;8.60;;;5.32;;
80272;SDS011;69574;45.328;9.598;2023-05-10T06:39:17;6.50;;;4.93;;
80272;SDS011;69574;45.328;9.598;2023-05-10T06:41:44;6.30;;;4.63;;
80272;SDS011;69574;45.328;9.598;2023-05-10T06:44:09;8.48;;;4.93;;
80272;SDS011;69574;45.328;9.598;2023-05-10T06:46:35;6.95;;;4.43;;
80272;SDS011;69574;45.328;9.598;2023-05-10T06:49:01;6.85;;;5.00;;
80272;SDS011;69574;45.328;9.598;2023-05-10T06:51:27;6.38;;;4.72;;
80272;SDS011;69574;45.328;9.598;2023-05-10T06:53:52;5.88;;;4.32;;
80272;SDS011;69574;45.328;9.598;2023-05-10T06:56:18;7.35;;;4.40;;
80272;SDS011;69574;45.328;9.598;2023-05-10T06:58:48;5.72;;;4.20;;
80272;SDS011;69574;45.328;9.598;2023-05-10T07:01:13;6.75;;;4.32;;
80272;SDS011;69574;45.328;9.598;2023-05-10T07:03:39;6.43;;;4.53;;
80272;SDS011;69574;45.328;9.598;2023-05-10T07:06:05;6.57;;;4.28;;
80272;SDS011;69574;45.328;9.598;2023-05-10T07:08:32;6.25;;;4.35;;
80272;SDS011;69574;45.328;9.598;2023-05-10T07:11:00;6.68;;;4.65;;
80272;SDS011;69574;45.328;9.598;2023-05-10T07:13:26;6.57;;;4.72;;
80272;SDS011;69574;45.328;9.598;2023-05-10T07:15:53;6.50;;;4.60;;
80272;SDS011;69574;45.328;9.598;2023-05-10T07:18:19;5.82;;;4.05;;
80272;SDS011;69574;45.328;9.598;2023-05-10T07:20:44;6.00;;;4.45;;
80272;SDS011;69574;45.328;9.598;2023-05-10T07:23:10;6.18;;;4.10;;
80272;SDS011;69574;45.328;9.598;2023-05-10T07:25:35;6.25;;;4.43;;
80272;SDS011;69574;45.328;9.598;2023-05-10T07:28:01;5.28;;;3.75;;
80272;SDS011;69574;45.328;9.598;2023-05-10T07:30:26;5.57;;;4.10;;
80272;SDS011;69574;45.328;9.598;2023-05-10T07:32:53;6.75;;;4.32;;
80272;SDS011;69574;45.328;9.598;2023-05-10T07:35:19;5.60;;;4.28;;
80272;SDS011;69574;45.328;9.598;2023-05-10T07:37:44;6.22;;;4.28;;
80272;SDS011;69574;45.328;9.598;2023-05-10T07:40:10;6.45;;;4.43;;
80272;SDS011;69574;45.328;9.598;2023-05-10T07:42:36;5.68;;;4.32;;
80272;SDS011;69574;45.328;9.598;2023-05-10T07:45:03;6.43;;;4.53;;
80272;SDS011;69574;45.328;9.598;2023-05-10T07:47:29;5.95;;;4.78;;
80272;SDS011;69574;45.328;9.598;2023-05-10T07:49:56;5.97;;;4.20;;
80272;SDS011;69574;45.328;9.598;2023-05-10T07:52:22;7.72;;;4.80;;
80272;SDS011;69574;45.328;9.598;2023-05-10T07:54:47;7.18;;;4.90;;
80272;SDS011;69574;45.328;9.598;2023-05-10T07:57:13;6.40;;;4.35;;
80272;SDS011;69574;45.328;9.598;2023-05-10T07:59:40;6.78;;;4.88;;
80272;SDS011;69574;45.328;9.598;2023-05-10T08:02:06;6.95;;;4.88;;
80272;SDS011;69574;45.328;9.598;2023-05-10T08:04:32;6.30;;;4.53;;
80272;SDS011;69574;45.328;9.598;2023-05-10T08:06:58;7.45;;;4.78;;
80272;SDS011;69574;45.328;9.598;2023-05-10T08:09:24;6.88;;;4.68;;
80272;SDS011;69574;45.328;9.598;2023-05-10T08:11:50;6.18;;;4.40;;
80272;SDS011;69574;45.328;9.598;2023-05-10T08:14:15;6.35;;;4.28;;
80272;SDS011;69574;45.328;9.598;2023-05-10T08:16:41;6.70;;;4.47;;
80272;SDS011;69574;45.328;9.598;2023-05-10T08:19:07;7.72;;;4.60;;
80272;SDS011;69574;45.328;9.598;2023-05-10T08:21:32;7.07;;;4.47;;
80272;SDS011;69574;45.328;9.598;2023-05-10T08:24:00;6.90;;;4.35;;
80272;SDS011;69574;45.328;9.598;2023-05-10T08:26:25;7.32;;;4.15;;
80272;SDS011;69574;45.328;9.598;2023-05-10T08:28:51;5.88;;;4.10;;
80272;SDS011;69574;45.328;9.598;2023-05-10T08:31:16;6.35;;;3.97;;
80272;SDS011;69574;45.328;9.598;2023-05-10T08:33:43;6.53;;;4.40;;
80272;SDS011;69574;45.328;9.598;2023-05-10T08:36:08;8.23;;;4.15;;
80272;SDS011;69574;45.328;9.598;2023-05-10T08:38:34;6.00;;;4.28;;
80272;SDS011;69574;45.328;9.598;2023-05-10T08:41:01;6.28;;;4.00;;
80272;SDS011;69574;45.328;9.598;2023-05-10T08:43:27;6.35;;;4.05;;
80272;SDS011;69574;45.328;9.598;2023-05-10T08:45:54;5.60;;;4.05;;
80272;SDS011;69574;45.328;9.598;2023-05-10T08:48:21;5.80;;;4.32;;
80272;SDS011;69574;45.328;9.598;2023-05-10T08:50:48;6.13;;;3.67;;
80272;SDS011;69574;45.328;9.598;2023-05-10T08:53:13;5.55;;;3.88;;
80272;SDS011;69574;45.328;9.598;2023-05-10T08:55:40;5.35;;;3.95;;
80272;SDS011;69574;45.328;9.598;2023-05-10T08:58:08;5.90;;;3.88;;
80272;SDS011;69574;45.328;9.598;2023-05-10T09:00:34;6.50;;;4.18;;
80272;SDS011;69574;45.328;9.598;2023-05-10T09:03:06;7.63;;;4.15;;
80272;SDS011;69574;45.328;9.598;2023-05-10T09:05:45;6.47;;;4.03;;
80272;SDS011;69574;45.328;9.598;2023-05-10T09:08:11;6.57;;;4.15;;
80272;SDS011;69574;45.328;9.598;2023-05-10T09:10:38;5.35;;;3.80;;
80272;SDS011;69574;45.328;9.598;2023-05-10T09:13:05;4.47;;;3.20;;
80272;SDS011;69574;45.328;9.598;2023-05-10T09:15:32;5.68;;;3.85;;
80272;SDS011;69574;45.328;9.598;2023-05-10T09:17:57;6.47;;;4.00;;
80272;SDS011;69574;45.328;9.598;2023-05-10T09:20:24;6.75;;;3.92;;
80272;SDS011;69574;45.328;9.598;2023-05-10T09:22:50;5.53;;;3.70;;
80272;SDS011;69574;45.328;9.598;2023-05-10T09:25:16;5.75;;;3.92;;
80272;SDS011;69574;45.328;9.598;2023-05-10T09:27:43;5.57;;;3.95;;
80272;SDS011;69574;45.328;9.598;2023-05-10T09:30:10;6.18;;;3.85;;
80272;SDS011;69574;45.328;9.598;2023-05-10T09:32:38;5.25;;;3.63;;
80272;SDS011;69574;45.328;9.598;2023-05-10T09:35:10;6.07;;;3.88;;
80272;SDS011;69574;45.328;9.598;2023-05-10T09:37:36;6.38;;;4.32;;
80272;SDS011;69574;45.328;9.598;2023-05-10T09:40:04;6.20;;;4.07;;
80272;SDS011;69574;45.328;9.598;2023-05-10T09:42:29;5.68;;;3.90;;
80272;SDS011;69574;45.328;9.598;2023-05-10T09:44:57;5.60;;;3.85;;
80272;SDS011;69574;45.328;9.598;2023-05-10T09:47:25;5.13;;;3.40;;
80272;SDS011;69574;45.328;9.598;2023-05-10T09:49:53;6.28;;;3.90;;
80272;SDS011;69574;45.328;9.598;2023-05-10T09:52:22;6.18;;;3.55;;
80272;SDS011;69574;45.328;9.598;2023-05-10T09:54:52;5.90;;;4.20;;
80272;SDS011;69574;45.328;9.598;2023-05-10T09:57:18;7.25;;;4.05;;
80272;SDS011;69574;45.328;9.598;2023-05-10T09:59:48;6.20;;;4.15;;
80272;SDS011;69574;45.328;9.598;2023-05-10T10:02:16;5.35;;;3.85;;
80272;SDS011;69574;45.328;9.598;2023-05-10T10:04:42;6.70;;;4.25;;
80272;SDS011;69574;45.328;9.598;2023-05-10T10:07:11;6.25;;;3.92;;
80272;SDS011;69574;45.328;9.598;2023-05-10T10:09:37;5.95;;;3.90;;
80272;SDS011;69574;45.328;9.598;2023-05-10T10:12:04;5.65;;;4.13;;
80272;SDS011;69574;45.328;9.598;2023-05-10T10:14:29;6.57;;;3.60;;
80272;SDS011;69574;45.328;9.598;2023-05-10T10:16:56;5.93;;;4.05;;
80272;SDS011;69574;45.328;9.598;2023-05-10T10:19:22;5.55;;;4.15;;
80272;SDS011;69574;45.328;9.598;2023-05-10T10:21:48;5.93;;;3.97;;
80272;SDS011;69574;45.328;9.598;2023-05-10T10:24:15;7.03;;;4.00;;
80272;SDS011;69574;45.328;9.598;2023-05-10T10:26:41;5.30;;;3.72;;
80272;SDS011;69574;45.328;9.598;2023-05-10T10:29:10;6.57;;;4.05;;
80272;SDS011;69574;45.328;9.598;2023-05-10T10:31:40;5.45;;;3.67;;
80272;SDS011;69574;45.328;9.598;2023-05-10T10:34:07;5.95;;;4.00;;
80272;SDS011;69574;45.328;9.598;2023-05-10T10:36:39;5.50;;;4.18;;
80272;SDS011;69574;45.328;9.598;2023-05-10T10:39:08;6.25;;;4.10;;
80272;SDS011;69574;45.328;9.598;2023-05-10T10:41:36;5.30;;;4.10;;
80272;SDS011;69574;45.328;9.598;2023-05-10T10:44:23;6.15;;;3.83;;
80272;SDS011;69574;45.328;9.598;2023-05-10T10:46:59;7.28;;;4.30;;
80272;SDS011;69574;45.328;9.598;2023-05-10T10:49:25;5.57;;;3.78;;
80272;SDS011;69574;45.328;9.598;2023-05-10T10:54:35;7.18;;;5.00;;
80272;SDS011;69574;45.328;9.598;2023-05-10T10:57:12;6.80;;;4.85;;
80272;SDS011;69574;45.328;9.598;2023-05-10T10:59:42;5.93;;;4.68;;
80272;SDS011;69574;45.328;9.598;2023-05-10T11:02:09;6.05;;;4.47;;
80272;SDS011;69574;45.328;9.598;2023-05-10T11:04:41;6.05;;;4.45;;
80272;SDS011;69574;45.328;9.598;2023-05-10T11:07:16;6.47;;;4.75;;
80272;SDS011;69574;45.328;9.598;2023-05-10T11:09:41;5.90;;;4.35;;
80272;SDS011;69574;45.328;9.598;2023-05-10T11:12:08;6.75;;;4.43;;
80272;SDS011;69574;45.328;9.598;2023-05-10T11:14:35;6.07;;;4.22;;
80272;SDS011;69574;45.328;9.598;2023-05-10T11:17:01;6.22;;;3.90;;
80272;SDS011;69574;45.328;9.598;2023-05-10T11:19:31;5.63;;;4.25;;
80272;SDS011;69574;45.328;9.598;2023-05-10T11:22:11;6.13;;;4.38;;
80272;SDS011;69574;45.328;9.598;2023-05-10T11:24:40;5.97;;;4.20;;
80272;SDS011;69574;45.328;9.598;2023-05-10T11:27:21;6.25;;;4.10;;
80272;SDS011;69574;45.328;9.598;2023-05-10T11:29:49;6.07;;;4.30;;
80272;SDS011;69574;45.328;9.598;2023-05-10T11:32:16;6.32;;;4.70;;
80272;SDS011;69574;45.328;9.598;2023-05-10T11:34:46;6.22;;;4.40;;
80272;SDS011;69574;45.328;9.598;2023-05-10T11:37:33;6.07;;;4.72;;
80272;SDS011;69574;45.328;9.598;2023-05-10T11:40:13;6.68;;;4.15;;
80272;SDS011;69574;45.328;9.598;2023-05-10T11:42:39;5.60;;;4.15;;
80272;SDS011;69574;45.328;9.598;2023-05-10T11:45:07;6.43;;;4.30;;
80272;SDS011;69574;45.328;9.598;2023-05-10T11:47:33;6.18;;;4.10;;
80272;SDS011;69574;45.328;9.598;2023-05-10T11:50:00;5.80;;;4.15;;
80272;SDS011;69574;45.328;9.598;2023-05-10T11:52:26;6.25;;;4.30;;
80272;SDS011;69574;45.328;9.598;2023-05-10T11:54:52;5.43;;;3.83;;
80272;SDS011;69574;45.328;9.598;2023-05-10T11:57:18;5.50;;;4.05;;
80272;SDS011;69574;45.328;9.598;2023-05-10T11:59:43;5.78;;;4.25;;
80272;SDS011;69574;45.328;9.598;2023-05-10T12:02:11;6.57;;;4.28;;
80272;SDS011;69574;45.328;9.598;2023-05-10T12:04:36;7.63;;;5.05;;
80272;SDS011;69574;45.328;9.598;2023-05-10T12:07:10;7.78;;;5.25;;
80272;SDS011;69574;45.328;9.598;2023-05-10T12:09:36;7.93;;;5.88;;
80272;SDS011;69574;45.328;9.598;2023-05-10T12:12:02;6.90;;;5.53;;
80272;SDS011;69574;45.328;9.598;2023-05-10T12:14:27;6.70;;;5.40;;
80272;SDS011;69574;45.328;9.598;2023-05-10T12:16:54;7.75;;;6.10;;
80272;SDS011;69574;45.328;9.598;2023-05-10T12:19:23;7.50;;;6.40;;
80272;SDS011;69574;45.328;9.598;2023-05-10T12:21:49;8.55;;;7.22;;
80272;SDS011;69574;45.328;9.598;2023-05-10T12:24:14;7.78;;;6.97;;
80272;SDS011;69574;45.328;9.598;2023-05-10T12:26:43;8.80;;;7.90;;
80272;SDS011;69574;45.328;9.598;2023-05-10T12:29:14;9.05;;;7.50;;
80272;SDS011;69574;45.328;9.598;2023-05-10T12:31:53;10.18;;;8.35;;
80272;SDS011;69574;45.328;9.598;2023-05-10T12:34:24;9.82;;;8.15;;
80272;SDS011;69574;45.328;9.598;2023-05-10T12:36:51;7.38;;;6.45;;
80272;SDS011;69574;45.328;9.598;2023-05-10T12:39:17;7.10;;;5.57;;
80272;SDS011;69574;45.328;9.598;2023-05-10T12:41:43;7.95;;;4.82;;
80272;SDS011;69574;45.328;9.598;2023-05-10T12:44:08;5.72;;;4.45;;
80272;SDS011;69574;45.328;9.598;2023-05-10T12:46:34;6.95;;;4.80;;
80272;SDS011;69574;45.328;9.598;2023-05-10T12:48:59;6.32;;;4.43;;
80272;SDS011;69574;45.328;9.598;2023-05-10T12:51:26;5.63;;;4.15;;
80272;SDS011;69574;45.328;9.598;2023-05-10T12:53:51;6.43;;;4.35;;
80272;SDS011;69574;45.328;9.598;2023-05-10T12:56:17;5.38;;;3.97;;
80272;SDS011;69574;45.328;9.598;2023-05-10T12:58:43;5.10;;;3.80;;
80272;SDS011;69574;45.328;9.598;2023-05-10T13:01:13;5.43;;;4.07;;
80272;SDS011;69574;45.328;9.598;2023-05-10T13:03:38;5.75;;;3.97;;
80272;SDS011;69574;45.328;9.598;2023-05-10T13:06:04;5.63;;;3.72;;
80272;SDS011;69574;45.328;9.598;2023-05-10T13:08:31;5.32;;;4.10;;
80272;SDS011;69574;45.328;9.598;2023-05-10T13:10:58;6.43;;;4.32;;
80272;SDS011;69574;45.328;9.598;2023-05-10T13:13:24;6.25;;;4.40;;
80272;SDS011;69574;45.328;9.598;2023-05-10T13:15:49;5.50;;;3.97;;
80272;SDS011;69574;45.328;9.598;2023-05-10T13:18:15;5.10;;;3.88;;
80272;SDS011;69574;45.328;9.598;2023-05-10T13:20:40;6.43;;;3.70;;
80272;SDS011;69574;45.328;9.598;2023-05-10T13:23:08;7.55;;;4.07;;
80272;SDS011;69574;45.328;9.598;2023-05-10T13:25:35;5.38;;;3.85;;
80272;SDS011;69574;45.328;9.598;2023-05-10T13:28:00;6.43;;;4.20;;
80272;SDS011;69574;45.328;9.598;2023-05-10T13:30:32;5.75;;;3.97;;
80272;SDS011;69574;45.328;9.598;2023-05-10T13:33:01;5.32;;;3.53;;
80272;SDS011;69574;45.328;9.598;2023-05-10T13:35:26;5.72;;;3.83;;
80272;SDS011;69574;45.328;9.598;2023-05-10T13:37:52;5.80;;;3.92;;
80272;SDS011;69574;45.328;9.598;2023-05-10T13:40:18;5.70;;;3.75;;
80272;SDS011;69574;45.328;9.598;2023-05-10T13:42:45;6.60;;;4.13;;
80272;SDS011;69574;45.328;9.598;2023-05-10T13:45:12;5.32;;;4.07;;
80272;SDS011;69574;45.328;9.598;2023-05-10T13:47:38;6.00;;;4.05;;
80272;SDS011;69574;45.328;9.598;2023-05-10T13:50:04;4.97;;;3.50;;
80272;SDS011;69574;45.328;9.598;2023-05-10T13:52:29;4.65;;;3.55;;
80272;SDS011;69574;45.328;9.598;2023-05-10T13:54:55;5.93;;;3.95;;
80272;SDS011;69574;45.328;9.598;2023-05-10T13:57:21;6.70;;;3.65;;
80272;SDS011;69574;45.328;9.598;2023-05-10T13:59:48;4.72;;;3.42;;
80272;SDS011;69574;45.328;9.598;2023-05-10T14:02:13;4.90;;;3.83;;
80272;SDS011;69574;45.328;9.598;2023-05-10T14:04:39;5.10;;;3.80;;
80272;SDS011;69574;45.328;9.598;2023-05-10T14:07:04;5.47;;;3.58;;
80272;SDS011;69574;45.328;9.598;2023-05-10T14:09:30;4.93;;;3.58;;
80272;SDS011;69574;45.328;9.598;2023-05-10T14:11:56;5.13;;;3.53;;
80272;SDS011;69574;45.328;9.598;2023-05-10T14:14:21;5.53;;;3.88;;
80272;SDS011;69574;45.328;9.598;2023-05-10T14:16:48;5.07;;;3.90;;
80272;SDS011;69574;45.328;9.598;2023-05-10T14:19:14;5.95;;;3.83;;
80272;SDS011;69574;45.328;9.598;2023-05-10T14:21:39;6.00;;;3.92;;
80272;SDS011;69574;45.328;9.598;2023-05-10T14:24:05;6.15;;;4.20;;
80272;SDS011;69574;45.328;9.598;2023-05-10T14:26:32;5.50;;;3.80;;
80272;SDS011;69574;45.328;9.598;2023-05-10T14:28:58;4.95;;;3.85;;
80272;SDS011;69574;45.328;9.598;2023-05-10T14:31:24;4.97;;;3.88;;
80272;SDS011;69574;45.328;9.598;2023-05-10T14:33:52;5.60;;;3.92;;
80272;SDS011;69574;45.328;9.598;2023-05-10T14:36:17;6.28;;;4.10;;
80272;SDS011;69574;45.328;9.598;2023-05-10T14:38:43;5.18;;;3.83;;
80272;SDS011;69574;45.328;9.598;2023-05-10T14:41:09;5.47;;;3.88;;
80272;SDS011;69574;45.328;9.598;2023-05-10T14:43:39;5.65;;;3.70;;
80272;SDS011;69574;45.328;9.598;2023-05-10T14:46:04;5.10;;;3.60;;